KTVI/TVI METAR and TAF weather

Enter ICAO airport designator
Station Type Date Time Source
KTVI METAR 2019/04/20 18:15 UTC NOAA

KTVI 201815Z AUTO 25014G22KT 10SM BKN065 19/04 A2990 RMK AO2


Station Type Date Time Source
KTVI Decoded METAR 2019/04/20 18:15 UTC NOAA

Thomasville, GA, United States (KTVI) 30-54-06N 083-52-53W
Apr 20, 2019 - 02:15 PM EDT / 2019.04.20 1815 UTC
Wind: from the WSW (250 degrees) at 16 MPH (14 KT) gusting to 25 MPH (22 KT):0
Visibility: 10 mile(s):0
Sky conditions: mostly cloudy
Temperature: 66 F (19 C)
Dew Point: 39 F (4 C)
Relative Humidity: 37%
Pressure (altimeter): 29.9 in. Hg (1012 hPa)
ob: KTVI 201815Z AUTO 25014G22KT 10SM BKN065 19/04 A2990 RMK AO2
cycle: 18

Station Type Date Time Source
KTVI TAF UTC NOAA

Error!

Example: see airport list